sensor_id;sensor_type;location;lat;lon;timestamp;temperature;humidity
44435;DHT22;30138;20.964;105.830;2023-09-07T00:01:26;31.30;98.00
44435;DHT22;30138;20.964;105.830;2023-09-07T00:06:33;31.30;98.00
44435;DHT22;30138;20.964;105.830;2023-09-07T00:11:39;31.30;98.00
44435;DHT22;30138;20.964;105.830;2023-09-07T00:16:46;31.30;98.00
44435;DHT22;30138;20.964;105.830;2023-09-07T00:21:53;31.30;98.10
44435;DHT22;30138;20.964;105.830;2023-09-07T00:26:59;31.20;91.90
44435;DHT22;30138;20.964;105.830;2023-09-07T00:32:09;30.80;80.80
44435;DHT22;30138;20.964;105.830;2023-09-07T00:37:15;30.50;73.00
44435;DHT22;30138;20.964;105.830;2023-09-07T00:42:21;30.30;67.50
44435;DHT22;30138;20.964;105.830;2023-09-07T00:47:30;30.10;63.60
44435;DHT22;30138;20.964;105.830;2023-09-07T00:52:38;29.80;60.80
44435;DHT22;30138;20.964;105.830;2023-09-07T00:57:45;29.70;59.10
44435;DHT22;30138;20.964;105.830;2023-09-07T01:02:53;29.50;60.40
44435;DHT22;30138;20.964;105.830;2023-09-07T01:08:10;29.20;58.40
44435;DHT22;30138;20.964;105.830;2023-09-07T01:13:20;29.10;56.90
44435;DHT22;30138;20.964;105.830;2023-09-07T01:18:27;29.00;55.60
44435;DHT22;30138;20.964;105.830;2023-09-07T01:23:36;28.80;54.70
44435;DHT22;30138;20.964;105.830;2023-09-07T01:28:42;28.70;54.00
44435;DHT22;30138;20.964;105.830;2023-09-07T01:33:48;28.60;53.20
44435;DHT22;30138;20.964;105.830;2023-09-07T01:38:55;28.50;52.50
44435;DHT22;30138;20.964;105.830;2023-09-07T01:44:02;28.40;52.10
44435;DHT22;30138;20.964;105.830;2023-09-07T01:49:08;28.30;51.60
44435;DHT22;30138;20.964;105.830;2023-09-07T01:54:16;28.30;51.40
44435;DHT22;30138;20.964;105.830;2023-09-07T01:59:23;28.20;51.10
44435;DHT22;30138;20.964;105.830;2023-09-07T02:04:29;28.20;51.10
44435;DHT22;30138;20.964;105.830;2023-09-07T02:09:37;28.20;51.00
44435;DHT22;30138;20.964;105.830;2023-09-07T02:14:43;28.20;52.50
44435;DHT22;30138;20.964;105.830;2023-09-07T02:19:49;28.20;52.20
44435;DHT22;30138;20.964;105.830;2023-09-07T02:24:57;28.10;51.20
44435;DHT22;30138;20.964;105.830;2023-09-07T02:30:03;28.10;50.60
44435;DHT22;30138;20.964;105.830;2023-09-07T02:35:10;28.10;50.20
44435;DHT22;30138;20.964;105.830;2023-09-07T02:40:18;28.00;49.90
44435;DHT22;30138;20.964;105.830;2023-09-07T02:45:25;28.00;50.00
44435;DHT22;30138;20.964;105.830;2023-09-07T02:50:33;28.00;49.90
44435;DHT22;30138;20.964;105.830;2023-09-07T02:55:42;28.00;49.70
44435;DHT22;30138;20.964;105.830;2023-09-07T03:00:48;28.00;49.60
44435;DHT22;30138;20.964;105.830;2023-09-07T03:05:57;28.00;49.80
44435;DHT22;30138;20.964;105.830;2023-09-07T03:11:05;28.10;51.00
44435;DHT22;30138;20.964;105.830;2023-09-07T03:16:12;28.00;50.30
44435;DHT22;30138;20.964;105.830;2023-09-07T03:21:18;28.00;49.80
44435;DHT22;30138;20.964;105.830;2023-09-07T03:26:30;27.90;49.30
44435;DHT22;30138;20.964;105.830;2023-09-07T03:31:38;28.00;49.30
44435;DHT22;30138;20.964;105.830;2023-09-07T03:36:44;28.00;48.90
44435;DHT22;30138;20.964;105.830;2023-09-07T03:41:52;28.00;48.60
44435;DHT22;30138;20.964;105.830;2023-09-07T03:47:03;28.00;48.40
44435;DHT22;30138;20.964;105.830;2023-09-07T03:52:10;28.00;48.10
44435;DHT22;30138;20.964;105.830;2023-09-07T03:57:18;28.00;48.10
44435;DHT22;30138;20.964;105.830;2023-09-07T04:02:27;28.00;48.00
44435;DHT22;30138;20.964;105.830;2023-09-07T04:07:34;28.00;47.90
44435;DHT22;30138;20.964;105.830;2023-09-07T04:12:43;27.90;47.70
44435;DHT22;30138;20.964;105.830;2023-09-07T04:17:50;27.90;47.70
44435;DHT22;30138;20.964;105.830;2023-09-07T04:22:58;27.90;47.50
44435;DHT22;30138;20.964;105.830;2023-09-07T04:28:07;27.80;47.30
44435;DHT22;30138;20.964;105.830;2023-09-07T04:33:13;27.80;47.20
44435;DHT22;30138;20.964;105.830;2023-09-07T04:38:20;27.90;47.30
44435;DHT22;30138;20.964;105.830;2023-09-07T04:43:28;27.80;47.30
44435;DHT22;30138;20.964;105.830;2023-09-07T04:48:34;27.90;47.20
44435;DHT22;30138;20.964;105.830;2023-09-07T04:53:41;27.90;53.40
44435;DHT22;30138;20.964;105.830;2023-09-07T04:58:50;28.20;65.10
44435;DHT22;30138;20.964;105.830;2023-09-07T05:03:57;28.30;64.40
44435;DHT22;30138;20.964;105.830;2023-09-07T05:09:04;28.30;58.80
44435;DHT22;30138;20.964;105.830;2023-09-07T05:14:14;28.30;55.50
44435;DHT22;30138;20.964;105.830;2023-09-07T05:19:22;28.30;53.30
44435;DHT22;30138;20.964;105.830;2023-09-07T05:24:29;28.30;51.70
44435;DHT22;30138;20.964;105.830;2023-09-07T05:29:38;28.30;50.70
44435;DHT22;30138;20.964;105.830;2023-09-07T05:34:44;28.30;49.70
44435;DHT22;30138;20.964;105.830;2023-09-07T05:39:51;28.30;49.10
44435;DHT22;30138;20.964;105.830;2023-09-07T05:44:59;28.30;48.50
44435;DHT22;30138;20.964;105.830;2023-09-07T05:50:07;28.30;48.10
44435;DHT22;30138;20.964;105.830;2023-09-07T05:55:14;28.30;47.70
44435;DHT22;30138;20.964;105.830;2023-09-07T06:00:22;28.30;47.50
44435;DHT22;30138;20.964;105.830;2023-09-07T06:05:29;28.30;47.30
44435;DHT22;30138;20.964;105.830;2023-09-07T06:10:37;28.30;47.10
44435;DHT22;30138;20.964;105.830;2023-09-07T06:15:47;28.30;47.10
44435;DHT22;30138;20.964;105.830;2023-09-07T06:20:55;28.30;46.80
44435;DHT22;30138;20.964;105.830;2023-09-07T06:26:01;28.30;47.20
44435;DHT22;30138;20.964;105.830;2023-09-07T06:31:10;28.30;46.40
44435;DHT22;30138;20.964;105.830;2023-09-07T06:36:16;28.20;46.20
44435;DHT22;30138;20.964;105.830;2023-09-07T06:41:22;28.20;46.20
44435;DHT22;30138;20.964;105.830;2023-09-07T06:46:30;28.20;46.10
44435;DHT22;30138;20.964;105.830;2023-09-07T06:51:37;28.20;46.20
44435;DHT22;30138;20.964;105.830;2023-09-07T06:56:43;28.20;46.00
44435;DHT22;30138;20.964;105.830;2023-09-07T07:01:53;28.10;45.80
44435;DHT22;30138;20.964;105.830;2023-09-07T07:07:02;28.20;45.90
44435;DHT22;30138;20.964;105.830;2023-09-07T07:12:08;28.10;45.80
44435;DHT22;30138;20.964;105.830;2023-09-07T07:17:17;28.10;45.70
44435;DHT22;30138;20.964;105.830;2023-09-07T07:22:25;28.10;45.60
44435;DHT22;30138;20.964;105.830;2023-09-07T07:27:31;28.20;50.80
44435;DHT22;30138;20.964;105.830;2023-09-07T07:32:40;28.30;54.60
44435;DHT22;30138;20.964;105.830;2023-09-07T07:37:47;28.20;51.70
44435;DHT22;30138;20.964;105.830;2023-09-07T07:42:54;28.20;50.00
44435;DHT22;30138;20.964;105.830;2023-09-07T07:48:02;28.20;48.70
44435;DHT22;30138;20.964;105.830;2023-09-07T07:53:12;28.20;48.00
44435;DHT22;30138;20.964;105.830;2023-09-07T07:58:20;28.10;47.40
44435;DHT22;30138;20.964;105.830;2023-09-07T08:03:30;28.10;46.90
44435;DHT22;30138;20.964;105.830;2023-09-07T08:08:36;28.10;46.40
44435;DHT22;30138;20.964;105.830;2023-09-07T08:13:43;28.10;46.10
44435;DHT22;30138;20.964;105.830;2023-09-07T08:18:52;28.20;49.30
44435;DHT22;30138;20.964;105.830;2023-09-07T08:23:58;28.30;47.80
44435;DHT22;30138;20.964;105.830;2023-09-07T08:29:07;28.30;47.00
44435;DHT22;30138;20.964;105.830;2023-09-07T08:34:15;28.40;46.60
44435;DHT22;30138;20.964;105.830;2023-09-07T08:39:23;28.40;46.20
44435;DHT22;30138;20.964;105.830;2023-09-07T08:44:29;28.40;46.00
44435;DHT22;30138;20.964;105.830;2023-09-07T08:49:41;28.50;47.60
44435;DHT22;30138;20.964;105.830;2023-09-07T08:54:49;28.50;46.80
44435;DHT22;30138;20.964;105.830;2023-09-07T08:59:56;28.50;46.20
44435;DHT22;30138;20.964;105.830;2023-09-07T09:05:06;28.50;45.80
44435;DHT22;30138;20.964;105.830;2023-09-07T09:10:17;28.50;45.40
44435;DHT22;30138;20.964;105.830;2023-09-07T09:15:25;28.50;45.20
44435;DHT22;30138;20.964;105.830;2023-09-07T09:20:33;28.50;44.90
44435;DHT22;30138;20.964;105.830;2023-09-07T09:25:41;28.50;44.70
44435;DHT22;30138;20.964;105.830;2023-09-07T09:30:47;28.50;44.70
44435;DHT22;30138;20.964;105.830;2023-09-07T09:35:56;28.50;49.20
44435;DHT22;30138;20.964;105.830;2023-09-07T09:41:02;28.50;51.00
44435;DHT22;30138;20.964;105.830;2023-09-07T09:46:09;28.50;48.80
44435;DHT22;30138;20.964;105.830;2023-09-07T09:51:18;28.50;47.50
44435;DHT22;30138;20.964;105.830;2023-09-07T09:56:25;28.40;46.50
44435;DHT22;30138;20.964;105.830;2023-09-07T10:01:36;28.40;45.90
44435;DHT22;30138;20.964;105.830;2023-09-07T10:07:00;28.30;45.40
44435;DHT22;30138;20.964;105.830;2023-09-07T10:12:12;28.30;45.20
44435;DHT22;30138;20.964;105.830;2023-09-07T10:17:22;28.30;44.80
44435;DHT22;30138;20.964;105.830;2023-09-07T10:22:31;28.20;44.40
44435;DHT22;30138;20.964;105.830;2023-09-07T10:27:40;28.20;44.30
44435;DHT22;30138;20.964;105.830;2023-09-07T10:32:47;28.20;44.30
44435;DHT22;30138;20.964;105.830;2023-09-07T10:37:56;28.10;44.30
44435;DHT22;30138;20.964;105.830;2023-09-07T10:43:04;28.10;44.20
44435;DHT22;30138;20.964;105.830;2023-09-07T10:48:11;28.00;44.20
44435;DHT22;30138;20.964;105.830;2023-09-07T10:53:26;28.00;44.10
44435;DHT22;30138;20.964;105.830;2023-09-07T10:58:34;28.00;44.00
44435;DHT22;30138;20.964;105.830;2023-09-07T11:03:41;28.00;44.10
44435;DHT22;30138;20.964;105.830;2023-09-07T11:08:50;27.90;44.00
44435;DHT22;30138;20.964;105.830;2023-09-07T11:13:58;27.90;43.90
44435;DHT22;30138;20.964;105.830;2023-09-07T11:19:05;27.80;43.80
44435;DHT22;30138;20.964;105.830;2023-09-07T11:24:14;27.90;43.80
44435;DHT22;30138;20.964;105.830;2023-09-07T11:29:20;27.80;43.90
44435;DHT22;30138;20.964;105.830;2023-09-07T11:34:28;27.90;54.40
44435;DHT22;30138;20.964;105.830;2023-09-07T11:39:36;28.00;51.00
44435;DHT22;30138;20.964;105.830;2023-09-07T11:44:43;28.00;48.50
44435;DHT22;30138;20.964;105.830;2023-09-07T11:49:52;28.10;47.00
44435;DHT22;30138;20.964;105.830;2023-09-07T11:55:14;28.00;46.00
44435;DHT22;30138;20.964;105.830;2023-09-07T12:00:20;28.00;45.30
44435;DHT22;30138;20.964;105.830;2023-09-07T12:05:26;28.00;45.10
44435;DHT22;30138;20.964;105.830;2023-09-07T12:10:43;28.00;52.10
44435;DHT22;30138;20.964;105.830;2023-09-07T12:15:50;28.10;52.30
44435;DHT22;30138;20.964;105.830;2023-09-07T12:20:56;28.20;49.80
44435;DHT22;30138;20.964;105.830;2023-09-07T12:26:04;28.20;48.20
44435;DHT22;30138;20.964;105.830;2023-09-07T12:31:10;28.30;47.10
44435;DHT22;30138;20.964;105.830;2023-09-07T12:36:17;28.30;46.40
44435;DHT22;30138;20.964;105.830;2023-09-07T12:41:25;28.30;47.20
44435;DHT22;30138;20.964;105.830;2023-09-07T12:46:32;28.40;46.30
44435;DHT22;30138;20.964;105.830;2023-09-07T12:51:38;28.30;45.30
44435;DHT22;30138;20.964;105.830;2023-09-07T12:56:47;28.30;44.80
44435;DHT22;30138;20.964;105.830;2023-09-07T13:01:54;28.30;44.90
44435;DHT22;30138;20.964;105.830;2023-09-07T13:07:03;28.20;44.30
44435;DHT22;30138;20.964;105.830;2023-09-07T13:12:11;28.20;45.80
44435;DHT22;30138;20.964;105.830;2023-09-07T13:17:49;28.10;45.50
44435;DHT22;30138;20.964;105.830;2023-09-07T13:23:12;28.10;45.80
44435;DHT22;30138;20.964;105.830;2023-09-07T13:28:19;28.10;48.30
44435;DHT22;30138;20.964;105.830;2023-09-07T13:33:26;28.10;50.90
44435;DHT22;30138;20.964;105.830;2023-09-07T13:38:32;28.20;48.90
44435;DHT22;30138;20.964;105.830;2023-09-07T13:43:41;28.20;47.50
44435;DHT22;30138;20.964;105.830;2023-09-07T13:48:47;28.20;48.20
44435;DHT22;30138;20.964;105.830;2023-09-07T13:53:53;28.30;46.90
44435;DHT22;30138;20.964;105.830;2023-09-07T13:59:01;28.20;45.80
44435;DHT22;30138;20.964;105.830;2023-09-07T14:04:07;28.20;45.00
44435;DHT22;30138;20.964;105.830;2023-09-07T14:09:13;28.20;44.50
44435;DHT22;30138;20.964;105.830;2023-09-07T14:14:22;28.20;46.40
44435;DHT22;30138;20.964;105.830;2023-09-07T14:19:28;28.20;45.50
44435;DHT22;30138;20.964;105.830;2023-09-07T14:24:34;28.10;44.60
44435;DHT22;30138;20.964;105.830;2023-09-07T14:29:42;28.00;44.00
44435;DHT22;30138;20.964;105.830;2023-09-07T14:34:48;28.00;45.00
44435;DHT22;30138;20.964;105.830;2023-09-07T14:39:55;28.00;46.30
44435;DHT22;30138;20.964;105.830;2023-09-07T14:45:05;27.90;45.40
44435;DHT22;30138;20.964;105.830;2023-09-07T14:50:12;27.80;44.50
44435;DHT22;30138;20.964;105.830;2023-09-07T14:55:18;27.70;44.00
44435;DHT22;30138;20.964;105.830;2023-09-07T15:00:27;27.70;44.10
44435;DHT22;30138;20.964;105.830;2023-09-07T15:05:35;27.70;45.50
44435;DHT22;30138;20.964;105.830;2023-09-07T15:10:41;27.60;44.70
44435;DHT22;30138;20.964;105.830;2023-09-07T15:15:49;27.70;47.40
44435;DHT22;30138;20.964;105.830;2023-09-07T15:20:56;27.70;47.80
44435;DHT22;30138;20.964;105.830;2023-09-07T15:26:03;27.70;47.00
44435;DHT22;30138;20.964;105.830;2023-09-07T15:31:11;27.80;49.20
44435;DHT22;30138;20.964;105.830;2023-09-07T15:36:17;27.80;48.20
44435;DHT22;30138;20.964;105.830;2023-09-07T15:41:24;27.80;47.30
44435;DHT22;30138;20.964;105.830;2023-09-07T15:46:33;27.80;46.70
44435;DHT22;30138;20.964;105.830;2023-09-07T15:51:40;27.90;48.20
44435;DHT22;30138;20.964;105.830;2023-09-07T15:56:47;27.90;48.10
44435;DHT22;30138;20.964;105.830;2023-09-07T16:01:55;27.80;47.10
44435;DHT22;30138;20.964;105.830;2023-09-07T16:07:01;27.80;47.90
44435;DHT22;30138;20.964;105.830;2023-09-07T16:12:07;27.90;48.50
44435;DHT22;30138;20.964;105.830;2023-09-07T16:17:16;27.80;47.10
44435;DHT22;30138;20.964;105.830;2023-09-07T16:22:23;27.90;49.80
44435;DHT22;30138;20.964;105.830;2023-09-07T16:27:29;27.90;63.90
44435;DHT22;30138;20.964;105.830;2023-09-07T16:32:42;28.00;59.90
44435;DHT22;30138;20.964;105.830;2023-09-07T16:37:48;28.00;54.90
44435;DHT22;30138;20.964;105.830;2023-09-07T16:42:54;28.00;51.80
44435;DHT22;30138;20.964;105.830;2023-09-07T16:48:02;27.90;49.90
44435;DHT22;30138;20.964;105.830;2023-09-07T16:53:09;27.90;48.50
44435;DHT22;30138;20.964;105.830;2023-09-07T16:58:15;27.80;47.50
44435;DHT22;30138;20.964;105.830;2023-09-07T17:03:23;27.80;51.10
44435;DHT22;30138;20.964;105.830;2023-09-07T17:08:30;27.70;49.10
44435;DHT22;30138;20.964;105.830;2023-09-07T17:13:37;27.80;54.30
44435;DHT22;30138;20.964;105.830;2023-09-07T17:18:46;27.90;52.60
44435;DHT22;30138;20.964;105.830;2023-09-07T17:23:53;28.00;60.60
44435;DHT22;30138;20.964;105.830;2023-09-07T17:28:59;28.00;56.10
44435;DHT22;30138;20.964;105.830;2023-09-07T17:34:08;28.00;58.50
44435;DHT22;30138;20.964;105.830;2023-09-07T17:39:14;28.00;54.80
44435;DHT22;30138;20.964;105.830;2023-09-07T17:44:20;28.10;57.90
44435;DHT22;30138;20.964;105.830;2023-09-07T17:49:28;28.00;54.30
44435;DHT22;30138;20.964;105.830;2023-09-07T17:54:35;28.10;57.20
44435;DHT22;30138;20.964;105.830;2023-09-07T17:59:41;28.00;53.90
44435;DHT22;30138;20.964;105.830;2023-09-07T18:04:50;28.10;56.80
44435;DHT22;30138;20.964;105.830;2023-09-07T18:09:57;28.00;53.90
44435;DHT22;30138;20.964;105.830;2023-09-07T18:15:04;28.10;56.60
44435;DHT22;30138;20.964;105.830;2023-09-07T18:20:13;28.00;53.60
44435;DHT22;30138;20.964;105.830;2023-09-07T18:25:21;28.10;56.20
44435;DHT22;30138;20.964;105.830;2023-09-07T18:30:27;28.10;53.60
44435;DHT22;30138;20.964;105.830;2023-09-07T18:35:35;28.10;55.90
44435;DHT22;30138;20.964;105.830;2023-09-07T18:40:44;28.10;53.60
44435;DHT22;30138;20.964;105.830;2023-09-07T18:45:50;28.10;55.60
44435;DHT22;30138;20.964;105.830;2023-09-07T18:51:02;28.10;53.60
44435;DHT22;30138;20.964;105.830;2023-09-07T18:56:09;28.10;55.00
44435;DHT22;30138;20.964;105.830;2023-09-07T19:01:16;28.00;55.50
44435;DHT22;30138;20.964;105.830;2023-09-07T19:06:24;28.30;57.20
44435;DHT22;30138;20.964;105.830;2023-09-07T19:11:31;28.50;58.40
44435;DHT22;30138;20.964;105.830;2023-09-07T19:16:38;28.70;59.30
44435;DHT22;30138;20.964;105.830;2023-09-07T19:21:46;28.80;60.00
44435;DHT22;30138;20.964;105.830;2023-09-07T19:26:52;28.90;61.00
44435;DHT22;30138;20.964;105.830;2023-09-07T19:31:58;29.00;61.90
44435;DHT22;30138;20.964;105.830;2023-09-07T19:37:06;29.10;62.60
44435;DHT22;30138;20.964;105.830;2023-09-07T19:42:12;29.20;63.40
44435;DHT22;30138;20.964;105.830;2023-09-07T19:47:18;29.30;64.00
44435;DHT22;30138;20.964;105.830;2023-09-07T19:52:27;29.40;64.90
44435;DHT22;30138;20.964;105.830;2023-09-07T19:57:34;29.50;65.50
44435;DHT22;30138;20.964;105.830;2023-09-07T20:02:40;29.60;66.00
44435;DHT22;30138;20.964;105.830;2023-09-07T20:07:49;29.60;66.60
44435;DHT22;30138;20.964;105.830;2023-09-07T20:12:55;29.70;67.20
44435;DHT22;30138;20.964;105.830;2023-09-07T20:18:01;29.70;67.60
44435;DHT22;30138;20.964;105.830;2023-09-07T20:23:09;29.70;68.00
44435;DHT22;30138;20.964;105.830;2023-09-07T20:28:19;29.80;68.60
44435;DHT22;30138;20.964;105.830;2023-09-07T20:33:28;29.80;68.90
44435;DHT22;30138;20.964;105.830;2023-09-07T20:38:36;29.90;69.50
44435;DHT22;30138;20.964;105.830;2023-09-07T20:43:42;29.90;69.80
44435;DHT22;30138;20.964;105.830;2023-09-07T20:48:49;29.90;70.20
44435;DHT22;30138;20.964;105.830;2023-09-07T20:53:56;30.00;70.70
44435;DHT22;30138;20.964;105.830;2023-09-07T20:59:03;29.90;71.00
44435;DHT22;30138;20.964;105.830;2023-09-07T21:04:09;30.00;71.40
44435;DHT22;30138;20.964;105.830;2023-09-07T21:09:17;30.00;71.80
44435;DHT22;30138;20.964;105.830;2023-09-07T21:14:23;30.00;72.10
44435;DHT22;30138;20.964;105.830;2023-09-07T21:19:30;30.10;72.50
44435;DHT22;30138;20.964;105.830;2023-09-07T21:24:38;30.00;72.80
44435;DHT22;30138;20.964;105.830;2023-09-07T21:29:44;30.00;73.10
44435;DHT22;30138;20.964;105.830;2023-09-07T21:34:51;30.10;73.70
44435;DHT22;30138;20.964;105.830;2023-09-07T21:40:00;30.10;74.10
44435;DHT22;30138;20.964;105.830;2023-09-07T21:45:07;30.10;74.40
44435;DHT22;30138;20.964;105.830;2023-09-07T21:50:14;30.20;74.70
44435;DHT22;30138;20.964;105.830;2023-09-07T21:55:24;30.20;75.00
44435;DHT22;30138;20.964;105.830;2023-09-07T22:00:31;30.20;75.40
44435;DHT22;30138;20.964;105.830;2023-09-07T22:05:38;30.20;75.70
44435;DHT22;30138;20.964;105.830;2023-09-07T22:10:46;30.20;76.00
44435;DHT22;30138;20.964;105.830;2023-09-07T22:15:52;30.20;76.40
44435;DHT22;30138;20.964;105.830;2023-09-07T22:20:58;30.20;76.70
44435;DHT22;30138;20.964;105.830;2023-09-07T22:26:06;30.20;77.00
44435;DHT22;30138;20.964;105.830;2023-09-07T22:31:12;30.20;77.30
44435;DHT22;30138;20.964;105.830;2023-09-07T22:36:19;30.20;77.60
44435;DHT22;30138;20.964;105.830;2023-09-07T22:41:28;30.20;77.90
44435;DHT22;30138;20.964;105.830;2023-09-07T22:46:34;30.20;78.20
44435;DHT22;30138;20.964;105.830;2023-09-07T22:51:40;30.20;78.50
44435;DHT22;30138;20.964;105.830;2023-09-07T22:56:49;30.20;78.90
44435;DHT22;30138;20.964;105.830;2023-09-07T23:01:56;30.20;79.20
44435;DHT22;30138;20.964;105.830;2023-09-07T23:07:03;30.20;79.40
44435;DHT22;30138;20.964;105.830;2023-09-07T23:12:11;30.20;79.80
44435;DHT22;30138;20.964;105.830;2023-09-07T23:17:17;30.30;80.10
44435;DHT22;30138;20.964;105.830;2023-09-07T23:22:23;30.20;80.30
44435;DHT22;30138;20.964;105.830;2023-09-07T23:27:32;30.30;80.60
44435;DHT22;30138;20.964;105.830;2023-09-07T23:32:40;30.30;80.90
44435;DHT22;30138;20.964;105.830;2023-09-07T23:37:47;30.30;81.20
44435;DHT22;30138;20.964;105.830;2023-09-07T23:42:55;30.30;81.50
44435;DHT22;30138;20.964;105.830;2023-09-07T23:48:02;30.30;81.80
44435;DHT22;30138;20.964;105.830;2023-09-07T23:53:08;30.30;82.10
44435;DHT22;30138;20.964;105.830;2023-09-07T23:58:16;30.30;82.50
